Time;durP1;ratioP1;P1;durP2;ratioP2;P2;SDS_P1;SDS_P2;PMS_P1;PMS_P2;Temp;Humidity;BMP_temperature;BMP_pressure;BME280_temperature;BME280_humidity;BME280_pressure;Samples;Min_cycle;Max_cycle;Signal;HPM_P1;HPM_P2
2021/07/05 00:01:56;;;;;;;3.30;2.00;;;;;;;15.68;100.00;100773.03;5220913;28;20034;-73
2021/07/05 00:04:28;;;;;;;3.83;2.47;;;;;;;15.66;100.00;100774.19;5222319;28;20033;-71
2021/07/05 00:06:59;;;;;;;2.58;1.73;;;;;;;15.64;100.00;100778.75;5225619;28;20026;-73
2021/07/05 00:09:31;;;;;;;4.20;2.25;;;;;;;15.63;100.00;100774.47;5224162;28;20049;-73
2021/07/05 00:12:05;;;;;;;2.33;1.97;;;;;;;15.61;100.00;100772.00;5223088;28;20024;-72
2021/07/05 00:14:37;;;;;;;4.95;2.10;;;;;;;15.58;100.00;100774.97;5223545;28;20064;-70
2021/07/05 00:17:08;;;;;;;4.05;2.53;;;;;;;15.52;100.00;100776.44;5222722;28;20088;-73
2021/07/05 00:19:39;;;;;;;2.67;2.13;;;;;;;15.54;100.00;100779.75;5222958;28;20030;-73
2021/07/05 00:22:11;;;;;;;4.00;2.17;;;;;;;15.53;100.00;100779.91;5224237;28;20486;-72
2021/07/05 00:24:42;;;;;;;4.32;2.38;;;;;;;15.53;100.00;100780.75;5221650;28;20040;-70
2021/07/05 00:27:13;;;;;;;3.50;2.58;;;;;;;15.51;100.00;100774.78;5225263;28;20033;-73
2021/07/05 00:29:45;;;;;;;4.97;2.72;;;;;;;15.48;100.00;100777.75;5223751;28;20406;-73
2021/07/05 00:32:16;;;;;;;5.75;1.98;;;;;;;15.46;100.00;100771.00;5226517;28;20045;-73
2021/07/05 00:34:47;;;;;;;3.20;2.47;;;;;;;15.44;100.00;100768.50;5224594;28;20037;-74
2021/07/05 00:37:19;;;;;;;5.47;2.47;;;;;;;15.37;100.00;100764.06;5225771;28;20029;-73
2021/07/05 00:39:50;;;;;;;5.80;2.30;;;;;;;15.35;100.00;100761.59;5221220;28;20474;-73
2021/07/05 00:42:21;;;;;;;4.38;2.47;;;;;;;15.36;100.00;100762.41;5223322;28;20025;-73
2021/07/05 00:44:53;;;;;;;5.63;2.28;;;;;;;15.29;100.00;100751.66;5219465;28;20034;-73
2021/07/05 00:47:24;;;;;;;6.68;2.50;;;;;;;15.27;100.00;100757.13;5224012;28;20041;-72
2021/07/05 00:49:55;;;;;;;3.63;2.28;;;;;;;15.27;100.00;100761.59;5223536;28;20060;-73
2021/07/05 00:52:27;;;;;;;4.78;2.45;;;;;;;15.27;100.00;100754.47;5222509;28;20025;-72
2021/07/05 00:54:59;;;;;;;3.05;2.35;;;;;;;15.23;100.00;100761.06;5220097;28;20117;-72
2021/07/05 00:57:30;;;;;;;5.93;2.03;;;;;;;15.19;100.00;100758.91;5223204;28;20025;-73
2021/07/05 01:00:06;;;;;;;3.58;2.42;;;;;;;15.13;100.00;100755.09;5224164;28;20042;-73
2021/07/05 01:02:37;;;;;;;3.30;2.38;;;;;;;15.11;100.00;100764.16;5221793;28;20057;-73
2021/07/05 01:05:09;;;;;;;4.38;2.05;;;;;;;15.10;100.00;100779.19;5225050;28;20026;-72
2021/07/05 01:07:42;;;;;;;2.92;2.15;;;;;;;15.11;100.00;100775.53;5221274;28;20025;-73
2021/07/05 01:10:16;;;;;;;2.80;2.38;;;;;;;15.08;100.00;100778.53;5220984;28;20036;-71
2021/07/05 01:12:48;;;;;;;5.85;2.38;;;;;;;15.01;100.00;100769.59;5219346;28;20598;-71
2021/07/05 01:15:23;;;;;;;3.00;1.90;;;;;;;15.08;100.00;100775.88;5221089;28;20448;-73
2021/07/05 01:17:56;;;;;;;3.13;2.40;;;;;;;15.06;100.00;100789.22;5220629;28;20048;-73
2021/07/05 01:20:30;;;;;;;3.17;1.95;;;;;;;15.10;100.00;100779.19;5219147;28;20104;-73
2021/07/05 01:23:02;;;;;;;2.85;2.55;;;;;;;15.11;100.00;100780.81;5221308;28;20064;-70
2021/07/05 01:25:35;;;;;;;4.70;2.45;;;;;;;15.17;100.00;100777.53;5223494;28;20112;-72
2021/07/05 01:28:09;;;;;;;3.13;2.25;;;;;;;15.18;100.00;100773.91;5224050;28;20044;-73
2021/07/05 01:30:40;;;;;;;;;;;;;;;15.42;100.00;100772.28;5221180;28;20364;-71
2021/07/05 01:33:12;;;;;;;2.90;2.38;;;;;;;15.23;100.00;100776.91;5225415;28;19914;-72
2021/07/05 01:35:45;;;;;;;3.22;2.40;;;;;;;15.24;100.00;100768.00;5211506;28;20041;-71
2021/07/05 01:38:19;;;;;;;;;;;;;;;15.48;100.00;100774.28;5217007;28;20048;-73
2021/07/05 01:41:01;;;;;;;3.72;2.80;;;;;;;15.31;100.00;100784.84;5212703;28;19928;-73
2021/07/05 01:43:32;;;;;;;6.40;2.83;;;;;;;15.26;100.00;100779.19;5217782;28;20060;-74
2021/07/05 01:46:05;;;;;;;5.15;3.30;;;;;;;15.25;100.00;100782.84;5219408;28;20038;-73
2021/07/05 01:48:36;;;;;;;3.42;3.13;;;;;;;15.28;100.00;100786.97;5221622;28;20095;-74
2021/07/05 01:51:08;;;;;;;3.75;3.35;;;;;;;15.26;100.00;100783.66;5220694;28;20025;-71
2021/07/05 01:53:39;;;;;;;5.05;3.47;;;;;;;15.28;100.00;100784.34;5222078;28;20524;-73
2021/07/05 01:56:12;;;;;;;5.40;2.92;;;;;;;15.29;100.00;100788.63;5220288;28;20140;-71
2021/07/05 01:58:44;;;;;;;;;;;;;;;15.49;100.00;100786.50;5221992;28;20123;-74
2021/07/05 02:01:15;;;;;;;4.05;3.10;;;;;;;15.30;100.00;100782.34;5220839;28;19923;-74
2021/07/05 02:03:47;;;;;;;7.05;3.13;;;;;;;15.30;100.00;100791.13;5218951;28;20854;-73
2021/07/05 02:06:18;;;;;;;6.00;3.42;;;;;;;15.30;100.00;100790.25;5217959;28;20040;-73
2021/07/05 02:08:50;;;;;;;3.92;3.40;;;;;;;15.29;100.00;100789.44;5218741;28;20517;-73
2021/07/05 02:11:22;;;;;;;4.53;3.53;;;;;;;15.30;100.00;100792.91;5225461;28;20029;-71
2021/07/05 02:13:54;;;;;;;5.65;4.32;;;;;;;15.26;100.00;100794.22;5222274;28;20037;-70
2021/07/05 02:16:25;;;;;;;7.00;5.60;;;;;;;15.28;100.00;100787.78;5222096;28;20430;-73
2021/07/05 02:18:57;;;;;;;6.85;4.93;;;;;;;15.25;100.00;100803.13;5221999;28;20029;-73
2021/07/05 02:21:28;;;;;;;5.88;5.32;;;;;;;15.27;100.00;100801.16;5217822;28;20034;-72
2021/07/05 02:23:59;;;;;;;7.20;6.43;;;;;;;15.23;100.00;100802.47;5221473;28;20507;-73
2021/07/05 02:26:30;;;;;;;6.20;5.07;;;;;;;15.15;100.00;100807.72;5223609;28;20021;-71
2021/07/05 02:29:02;;;;;;;7.10;3.80;;;;;;;14.98;100.00;100807.66;5225888;28;20061;-72
2021/07/05 02:31:34;;;;;;;7.20;4.10;;;;;;;14.82;100.00;100799.72;5225953;28;20112;-70
2021/07/05 02:34:05;;;;;;;6.10;3.65;;;;;;;14.70;100.00;100796.53;5229477;28;20558;-72
2021/07/05 02:36:37;;;;;;;7.05;3.72;;;;;;;14.69;100.00;100800.13;5224131;28;20036;-71
2021/07/05 02:39:08;;;;;;;6.97;4.22;;;;;;;14.64;100.00;100805.06;5225663;28;20025;-72
2021/07/05 02:41:40;;;;;;;6.70;4.03;;;;;;;14.61;100.00;100802.72;5227991;28;20383;-72
2021/07/05 02:44:14;;;;;;;7.10;4.45;;;;;;;14.59;100.00;100792.34;5223967;28;20038;-72
2021/07/05 02:46:45;;;;;;;6.80;4.45;;;;;;;14.63;100.00;100802.59;5223932;28;20108;-73
2021/07/05 02:49:17;;;;;;;6.80;4.18;;;;;;;14.66;100.00;100811.00;5223673;28;20449;-73
2021/07/05 02:51:48;;;;;;;6.85;4.57;;;;;;;14.57;100.00;100812.75;5223859;28;20026;-72
2021/07/05 02:54:19;;;;;;;10.00;5.75;;;;;;;14.63;100.00;100815.78;5228326;28;20025;-70
2021/07/05 02:56:50;;;;;;;8.13;4.38;;;;;;;14.53;100.00;100813.25;5226081;28;20030;-73
2021/07/05 02:59:22;;;;;;;10.40;4.88;;;;;;;14.51;100.00;100791.50;5225252;28;20390;-72
2021/07/05 03:01:55;;;;;;;7.93;4.57;;;;;;;14.54;100.00;100789.34;5225068;28;20038;-73
2021/07/05 03:04:26;;;;;;;7.15;4.68;;;;;;;14.59;100.00;100784.44;5225422;28;20025;-71
2021/07/05 03:06:57;;;;;;;7.15;4.57;;;;;;;14.54;100.00;100788.53;5221385;28;20477;-72
2021/07/05 03:09:28;;;;;;;6.53;5.20;;;;;;;14.56;100.00;100792.66;5227498;28;20540;-72
2021/07/05 03:12:00;;;;;;;8.35;5.35;;;;;;;14.57;100.00;100799.56;5225109;28;20026;-73
2021/07/05 03:14:31;;;;;;;7.47;4.60;;;;;;;14.53;100.00;100794.78;5224942;28;20038;-70
2021/07/05 03:17:02;;;;;;;9.15;4.55;;;;;;;14.54;100.00;100796.44;5226589;28;20026;-72
2021/07/05 03:19:34;;;;;;;7.10;5.13;;;;;;;14.49;100.00;100791.63;5223765;28;20085;-72
2021/07/05 03:22:05;;;;;;;9.07;5.55;;;;;;;14.46;100.00;100786.63;5224481;28;20389;-71
2021/07/05 03:24:37;;;;;;;8.50;5.38;;;;;;;14.49;100.00;100789.00;5223837;28;20037;-73
2021/07/05 03:27:09;;;;;;;9.20;5.05;;;;;;;14.45;100.00;100790.25;5222038;28;20228;-71
2021/07/05 03:29:41;;;;;;;8.82;5.70;;;;;;;14.45;100.00;100797.34;5222787;28;20025;-72
2021/07/05 03:32:12;;;;;;;6.97;5.43;;;;;;;14.46;100.00;100799.00;5223280;28;20029;-72
2021/07/05 03:34:43;;;;;;;7.25;5.22;;;;;;;14.48;100.00;100789.97;5224468;28;20048;-71
2021/07/05 03:37:15;;;;;;;8.32;5.50;;;;;;;14.42;100.00;100789.75;5225640;28;20500;-73
2021/07/05 03:39:46;;;;;;;7.13;5.20;;;;;;;14.40;100.00;100792.56;5227704;28;20108;-72
2021/07/05 03:42:17;;;;;;;10.27;5.78;;;;;;;14.41;100.00;100793.38;5222917;28;20067;-72
2021/07/05 03:44:49;;;;;;;7.47;5.47;;;;;;;14.37;100.00;100787.59;5223716;28;20129;-73
2021/07/05 03:47:20;;;;;;;8.30;5.30;;;;;;;14.30;100.00;100790.00;5225930;28;20030;-72
2021/07/05 03:49:52;;;;;;;9.50;5.57;;;;;;;14.33;100.00;100794.97;5226123;28;20026;-72
2021/07/05 03:52:23;;;;;;;8.20;5.72;;;;;;;14.29;100.00;100783.09;5222017;28;20038;-72
2021/07/05 03:54:54;;;;;;;9.25;5.75;;;;;;;14.28;100.00;100786.72;5223235;28;20021;-72
2021/07/05 03:57:26;;;;;;;8.07;5.20;;;;;;;14.27;100.00;100781.59;5224149;28;20076;-71
2021/07/05 03:59:58;;;;;;;10.70;5.95;;;;;;;14.28;100.00;100792.00;5224473;28;20379;-72
2021/07/05 04:02:29;;;;;;;10.53;6.63;;;;;;;14.26;100.00;100793.94;5215173;28;20041;-73
2021/07/05 04:05:01;;;;;;;9.00;5.60;;;;;;;14.23;100.00;100794.25;5221847;28;20285;-72
2021/07/05 04:07:33;;;;;;;9.02;5.47;;;;;;;14.19;100.00;100795.53;5222175;28;20092;-73
2021/07/05 04:10:05;;;;;;;7.93;5.68;;;;;;;14.13;100.00;100796.19;5224452;28;20463;-72
2021/07/05 04:12:38;;;;;;;10.88;6.53;;;;;;;14.05;100.00;100789.03;5222828;28;20021;-72
2021/07/05 04:15:10;;;;;;;10.70;6.05;;;;;;;14.07;100.00;100788.88;5221883;28;20026;-72
2021/07/05 04:17:41;;;;;;;11.27;6.68;;;;;;;14.01;100.00;100790.31;5227776;28;20024;-72
2021/07/05 04:20:16;;;;;;;12.70;6.63;;;;;;;14.07;100.00;100797.59;5220018;28;20453;-72
2021/07/05 04:22:48;;;;;;;15.40;7.00;;;;;;;14.00;100.00;100791.28;5224556;28;20126;-71
2021/07/05 04:25:21;;;;;;;14.02;6.72;;;;;;;14.01;100.00;100794.75;5224147;28;20075;-72
2021/07/05 04:27:54;;;;;;;12.05;6.68;;;;;;;14.00;100.00;100783.38;5221913;28;20025;-72
2021/07/05 04:30:27;;;;;;;12.80;6.47;;;;;;;14.01;100.00;100790.31;5221818;28;20506;-72
2021/07/05 04:32:58;;;;;;;9.32;5.95;;;;;;;14.02;100.00;100791.97;5220341;28;20459;-72
2021/07/05 04:35:31;;;;;;;10.05;6.72;;;;;;;14.00;100.00;100804.47;5222059;28;20068;-71
2021/07/05 04:38:03;;;;;;;8.88;6.45;;;;;;;14.04;100.00;100804.97;5235637;28;20348;-71
2021/07/05 04:40:37;;;;;;;13.00;6.37;;;;;;;14.04;100.00;100797.91;5221875;28;20045;-72
2021/07/05 04:43:10;;;;;;;12.18;6.68;;;;;;;14.00;100.00;100799.19;5221186;28;20491;-72
2021/07/05 04:45:44;;;;;;;10.60;6.28;;;;;;;14.05;100.00;100790.81;5221931;28;20034;-71
2021/07/05 04:48:15;;;;;;;12.25;6.22;;;;;;;14.02;100.00;100791.16;5222374;28;20482;-72
2021/07/05 04:50:47;;;;;;;13.60;6.50;;;;;;;14.02;100.00;100791.16;5221226;28;20209;-71
2021/07/05 04:53:18;;;;;;;12.52;6.93;;;;;;;14.03;100.00;100798.91;5223410;28;20029;-70
2021/07/05 04:55:49;;;;;;;13.70;7.10;;;;;;;14.02;100.00;100797.25;5223847;28;20132;-71
2021/07/05 04:58:21;;;;;;;9.70;6.28;;;;;;;14.01;100.00;100800.03;5221845;28;20028;-71
2021/07/05 05:00:52;;;;;;;11.35;5.90;;;;;;;13.98;100.00;100795.91;5217428;28;20030;-71
2021/07/05 05:03:24;;;;;;;13.35;6.57;;;;;;;13.98;100.00;100797.69;5221424;28;20057;-71
2021/07/05 05:05:55;;;;;;;10.30;5.60;;;;;;;13.99;100.00;100788.81;5226472;28;20017;-71
2021/07/05 05:08:27;;;;;;;10.50;5.95;;;;;;;13.98;100.00;100784.50;5220558;28;20034;-71
2021/07/05 05:10:58;;;;;;;12.15;6.22;;;;;;;13.95;100.00;100777.78;5220553;28;20014;-71
2021/07/05 05:13:29;;;;;;;14.60;6.10;;;;;;;13.97;100.00;100778.44;5221073;28;20083;-70
2021/07/05 05:16:01;;;;;;;10.85;6.20;;;;;;;14.03;100.00;100777.00;5219833;28;20230;-71
2021/07/05 05:18:32;;;;;;;11.52;5.68;;;;;;;13.99;100.00;100776.47;5220161;28;20506;-70
2021/07/05 05:21:03;;;;;;;10.18;5.47;;;;;;;14.02;100.00;100778.81;5213282;28;20479;-71
2021/07/05 05:23:35;;;;;;;9.82;5.50;;;;;;;14.01;100.00;100771.03;5221673;28;20033;-71
2021/07/05 05:26:07;;;;;;;11.55;5.95;;;;;;;14.04;100.00;100786.53;5226790;28;20470;-71
2021/07/05 05:28:39;;;;;;;9.93;5.60;;;;;;;14.04;100.00;100782.09;5220038;28;20025;-71
2021/07/05 05:31:10;;;;;;;12.25;5.68;;;;;;;14.08;100.00;100779.97;5221688;28;20017;-70
2021/07/05 05:33:41;;;;;;;13.90;5.70;;;;;;;14.15;100.00;100783.66;5222280;28;20038;-71
2021/07/05 05:36:13;;;;;;;13.93;5.80;;;;;;;14.09;100.00;100764.03;5224674;28;20113;-71
2021/07/05 05:38:48;;;;;;;10.00;5.90;;;;;;;14.20;100.00;100781.38;5220965;28;20100;-70
2021/07/05 05:41:19;;;;;;;11.20;6.28;;;;;;;14.19;100.00;100777.09;5220992;28;20037;-71
2021/07/05 05:43:51;;;;;;;12.02;5.90;;;;;;;14.27;100.00;100776.31;5223736;28;20018;-70
2021/07/05 05:46:22;;;;;;;10.95;5.47;;;;;;;14.27;100.00;100774.50;5222717;28;20021;-71
2021/07/05 05:48:55;;;;;;;8.40;5.28;;;;;;;14.34;100.00;100778.19;5220250;28;20050;-71
2021/07/05 05:51:32;;;;;;;11.32;5.65;;;;;;;14.35;100.00;100777.19;5221205;28;20475;-71
2021/07/05 05:54:05;;;;;;;8.23;6.03;;;;;;;14.39;100.00;100776.88;5218781;28;20030;-71
2021/07/05 05:56:40;;;;;;;10.43;5.30;;;;;;;14.44;100.00;100771.97;5219770;28;20040;-71
2021/07/05 05:59:11;;;;;;;8.98;5.72;;;;;;;14.52;100.00;100769.41;5222226;28;20018;-71
2021/07/05 06:01:48;;;;;;;10.88;5.90;;;;;;;14.48;100.00;100755.69;5243236;22;20299;-75
2021/07/05 06:04:23;;;;;;;8.07;5.28;;;;;;;14.54;100.00;100764.78;5205844;28;20459;-74
2021/07/05 06:06:54;;;;;;;9.23;5.38;;;;;;;14.61;100.00;100768.44;5211179;28;20088;-75
2021/07/05 06:09:25;;;;;;;9.20;5.75;;;;;;;14.60;100.00;100765.00;5212625;28;20443;-75
2021/07/05 06:11:57;;;;;;;10.52;5.97;;;;;;;14.57;100.00;100752.13;5209656;28;20390;-75
2021/07/05 06:14:28;;;;;;;12.10;5.35;;;;;;;14.56;100.00;100765.47;5196997;28;20414;-75
2021/07/05 06:17:00;;;;;;;11.52;5.90;;;;;;;14.66;100.00;100773.25;5207929;28;20101;-74
2021/07/05 06:19:31;;;;;;;8.38;5.38;;;;;;;14.71;100.00;100770.97;5206731;28;20485;-75
2021/07/05 06:22:12;;;;;;;10.98;5.60;;;;;;;14.74;100.00;100771.50;5205952;28;20068;-75
2021/07/05 06:24:47;;;;;;;12.68;5.72;;;;;;;14.76;100.00;100760.78;5206066;28;20037;-75
2021/07/05 06:27:19;;;;;;;11.20;5.82;;;;;;;14.79;100.00;100756.00;5186169;28;20666;-74
2021/07/05 06:29:50;;;;;;;8.75;5.00;;;;;;;14.84;100.00;100766.88;5200132;28;20044;-74
2021/07/05 06:32:21;;;;;;;7.43;5.13;;;;;;;14.87;100.00;100768.38;5189953;28;20033;-74
2021/07/05 06:34:53;;;;;;;10.60;5.55;;;;;;;14.94;100.00;100784.41;5193740;28;20073;-74
2021/07/05 06:37:24;;;;;;;8.27;4.75;;;;;;;14.98;100.00;100793.66;5192651;28;20068;-74
2021/07/05 06:39:55;;;;;;;7.30;4.50;;;;;;;15.06;100.00;100793.69;5202024;28;20092;-75
2021/07/05 06:42:26;;;;;;;10.18;5.38;;;;;;;15.01;100.00;100775.69;5205364;28;20014;-74
2021/07/05 06:44:58;;;;;;;11.63;6.00;;;;;;;15.10;100.00;100787.09;5205468;28;20073;-75
2021/07/05 06:47:29;;;;;;;9.70;4.97;;;;;;;15.12;100.00;100785.13;5199230;28;20117;-74
2021/07/05 06:50:00;;;;;;;7.88;4.55;;;;;;;15.18;100.00;100787.09;5205931;28;20395;-74
2021/07/05 06:52:33;;;;;;;9.25;5.03;;;;;;;15.16;100.00;100789.09;5204808;28;20065;-75
2021/07/05 06:55:05;;;;;;;9.43;5.00;;;;;;;15.15;100.00;100789.25;5206547;28;20035;-74
2021/07/05 06:57:37;;;;;;;7.50;5.00;;;;;;;15.16;100.00;100783.00;5205738;28;20049;-74
2021/07/05 07:00:10;;;;;;;11.70;5.28;;;;;;;15.21;100.00;100802.63;5204799;28;20037;-74
2021/07/05 07:02:43;;;;;;;10.40;5.25;;;;;;;15.24;100.00;100791.75;5199433;28;20065;-75
2021/07/05 07:05:16;;;;;;;6.15;4.63;;;;;;;15.26;100.00;100789.75;5202357;28;20997;-75
2021/07/05 07:07:55;;;;;;;11.57;4.80;;;;;;;15.25;100.00;100782.00;5205163;28;20101;-74
2021/07/05 07:10:27;;;;;;;9.15;5.13;;;;;;;15.29;100.00;100786.81;5206735;28;20034;-74
2021/07/05 07:12:59;;;;;;;11.75;5.07;;;;;;;15.37;100.00;100799.19;5205691;28;20506;-75
2021/07/05 07:15:33;;;;;;;11.38;5.38;;;;;;;15.38;100.00;100800.88;5206689;28;20191;-74
2021/07/05 07:20:39;;;;;;;8.60;5.43;;;;;;;15.44;100.00;100810.75;5207479;28;20380;-75
2021/07/05 07:23:11;;;;;;;10.85;5.47;;;;;;;15.50;100.00;100798.72;5206647;28;20026;-75
2021/07/05 07:25:42;;;;;;;9.20;5.60;;;;;;;15.61;100.00;100808.13;5210345;28;20108;-74
2021/07/05 07:28:14;;;;;;;9.85;5.35;;;;;;;15.66;100.00;100804.06;5206895;28;20037;-75
2021/07/05 07:30:45;;;;;;;8.02;5.05;;;;;;;15.65;100.00;100809.47;5203886;28;20101;-74
2021/07/05 07:33:16;;;;;;;10.35;5.25;;;;;;;15.70;100.00;100820.41;5208894;28;20379;-73
2021/07/05 07:35:50;;;;;;;7.97;5.00;;;;;;;15.75;100.00;100824.19;5203624;28;20026;-75
2021/07/05 07:38:23;;;;;;;11.15;5.07;;;;;;;15.77;100.00;100818.75;5200154;28;20118;-74
2021/07/05 07:40:55;;;;;;;8.50;4.88;;;;;;;15.87;100.00;100829.97;5210526;28;20026;-74
2021/07/05 07:43:26;;;;;;;9.35;4.75;;;;;;;15.85;100.00;100831.13;5209179;28;20033;-74
2021/07/05 07:45:58;;;;;;;8.63;5.10;;;;;;;15.88;100.00;100826.34;5206324;28;20097;-74
2021/07/05 07:48:29;;;;;;;9.95;5.07;;;;;;;15.87;100.00;100827.31;5205313;28;20347;-74
2021/07/05 07:51:01;;;;;;;14.25;5.60;;;;;;;16.05;100.00;100830.63;5204831;28;20588;-74
2021/07/05 07:53:32;;;;;;;9.97;5.63;;;;;;;16.07;100.00;100830.47;5203722;28;20038;-74
2021/07/05 07:56:04;;;;;;;8.80;5.53;;;;;;;15.97;100.00;100833.28;5203631;28;20920;-74
2021/07/05 07:58:35;;;;;;;13.73;6.07;;;;;;;16.09;100.00;100827.66;5206882;28;20037;-73
2021/07/05 08:01:08;;;;;;;9.23;5.50;;;;;;;16.07;100.00;100835.75;5207891;28;20022;-74
2021/07/05 08:03:39;;;;;;;8.33;5.87;;;;;;;16.16;100.00;100816.25;5206433;28;20034;-75
2021/07/05 08:06:10;;;;;;;9.98;5.95;;;;;;;16.22;100.00;100815.59;5204855;28;20045;-74
2021/07/05 08:08:41;;;;;;;11.50;5.82;;;;;;;16.29;100.00;100827.16;5208291;28;20037;-75
2021/07/05 08:11:13;;;;;;;11.90;5.88;;;;;;;16.30;100.00;100817.41;5199334;28;20135;-74
2021/07/05 08:13:45;;;;;;;10.05;5.57;;;;;;;16.42;100.00;100817.88;5205880;28;20931;-74
2021/07/05 08:16:17;;;;;;;10.02;5.72;;;;;;;16.47;100.00;100829.56;5208430;28;20065;-74
2021/07/05 08:18:48;;;;;;;9.93;5.50;;;;;;;16.51;100.00;100819.47;5207682;28;20026;-73
2021/07/05 08:21:20;;;;;;;10.10;5.77;;;;;;;16.59;100.00;100823.94;5205781;28;20021;-73
2021/07/05 08:23:51;;;;;;;9.63;5.77;;;;;;;16.77;100.00;100835.16;5208090;28;20041;-74
2021/07/05 08:26:24;;;;;;;9.48;6.40;;;;;;;16.74;100.00;100824.91;5211002;28;20036;-74
2021/07/05 08:28:55;;;;;;;9.55;5.82;;;;;;;16.72;100.00;100826.88;5209131;28;20113;-74
2021/07/05 08:31:27;;;;;;;11.95;5.18;;;;;;;16.73;100.00;100834.66;5208855;28;20439;-74
2021/07/05 08:34:00;;;;;;;11.38;5.88;;;;;;;16.75;100.00;100839.81;5207648;28;20072;-74
2021/07/05 08:36:32;;;;;;;7.70;4.90;;;;;;;16.69;100.00;100843.09;5203884;28;20018;-73
2021/07/05 08:39:03;;;;;;;8.70;4.97;;;;;;;16.81;100.00;100835.63;5204888;28;20029;-73
2021/07/05 08:41:35;;;;;;;8.90;5.07;;;;;;;16.78;100.00;100842.06;5207119;28;20387;-73
2021/07/05 08:44:07;;;;;;;8.75;5.10;;;;;;;16.85;100.00;100837.75;5208356;28;20022;-73
2021/07/05 08:46:41;;;;;;;9.00;5.68;;;;;;;16.96;100.00;100840.03;5210100;28;20089;-73
2021/07/05 08:49:13;;;;;;;10.73;4.85;;;;;;;16.98;100.00;100831.94;5207011;28;20066;-75
2021/07/05 08:51:44;;;;;;;9.80;5.20;;;;;;;17.06;100.00;100831.91;5206592;28;20161;-74
2021/07/05 08:54:15;;;;;;;13.23;4.97;;;;;;;17.12;100.00;100843.59;5207424;28;20021;-74
2021/07/05 08:56:46;;;;;;;10.98;4.90;;;;;;;17.10;100.00;100835.03;5204655;28;20029;-76
2021/07/05 08:59:18;;;;;;;9.25;4.63;;;;;;;17.10;100.00;100830.56;5200347;28;20033;-75
2021/07/05 09:01:49;;;;;;;9.23;4.63;;;;;;;17.10;100.00;100819.97;5205074;28;20479;-73
2021/07/05 09:04:20;;;;;;;7.78;4.25;;;;;;;17.25;100.00;100828.00;5209569;28;20383;-73
2021/07/05 09:07:06;;;;;;;9.00;4.20;;;;;;;17.27;100.00;100829.47;5203212;28;20030;-73
2021/07/05 09:09:38;;;;;;;7.95;3.80;;;;;;;17.34;100.00;100828.75;5207302;28;20029;-73
2021/07/05 09:12:09;;;;;;;10.25;4.25;;;;;;;17.38;100.00;100833.53;5206172;28;20022;-75
2021/07/05 09:14:44;;;;;;;11.53;4.33;;;;;;;17.41;100.00;100838.47;5203282;28;20037;-73
2021/07/05 09:17:15;;;;;;;10.80;4.75;;;;;;;17.34;100.00;100836.72;5202214;28;20121;-73
2021/07/05 09:19:46;;;;;;;6.30;3.92;;;;;;;17.20;99.81;100841.75;5206953;28;20021;-75
2021/07/05 09:22:18;;;;;;;8.57;3.92;;;;;;;17.25;100.00;100839.41;5205044;28;20058;-73
2021/07/05 09:24:51;;;;;;;8.07;3.47;;;;;;;17.33;100.00;100832.41;5207972;28;20095;-73
2021/07/05 09:27:33;;;;;;;7.45;3.22;;;;;;;17.25;100.00;100834.09;5207333;28;20050;-74
2021/07/05 09:30:07;;;;;;;8.13;3.97;;;;;;;17.08;100.00;100827.25;5191605;28;20076;-72
2021/07/05 09:32:38;;;;;;;9.20;3.95;;;;;;;17.15;100.00;100832.66;5196654;28;20049;-73
2021/07/05 09:35:14;;;;;;;8.02;3.53;;;;;;;17.14;100.00;100837.16;5191371;28;20525;-73
2021/07/05 09:37:54;;;;;;;8.65;3.75;;;;;;;17.00;100.00;100843.16;5194814;28;20034;-73
2021/07/05 09:40:29;;;;;;;8.23;3.88;;;;;;;17.01;100.00;100842.19;5195337;28;20026;-74
2021/07/05 09:43:00;;;;;;;6.65;3.90;;;;;;;16.93;100.00;100848.34;5193854;28;20503;-73
2021/07/05 09:45:33;;;;;;;7.88;3.80;;;;;;;16.94;100.00;100847.34;5197326;28;20089;-73
2021/07/05 09:48:14;;;;;;;;;;;;;;;17.26;100.00;100843.69;5197336;28;20343;-73
2021/07/05 09:50:49;;;;;;;7.03;3.80;;;;;;;17.06;100.00;100845.13;5193148;28;19913;-73
2021/07/05 09:53:35;;;;;;;8.65;3.95;;;;;;;17.19;100.00;100850.69;5194000;28;20129;-73
2021/07/05 09:56:27;;;;;;;8.25;4.25;;;;;;;17.14;100.00;100845.09;5194122;28;20033;-72
2021/07/05 09:59:17;;;;;;;9.32;3.92;;;;;;;17.21;100.00;100851.34;5193407;28;20027;-73
2021/07/05 10:01:50;;;;;;;6.07;3.47;;;;;;;17.17;100.00;100846.56;5192143;28;20046;-73
2021/07/05 10:04:36;;;;;;;8.75;4.20;;;;;;;17.00;100.00;100840.50;5190690;28;20407;-72
2021/07/05 10:07:07;;;;;;;7.15;4.10;;;;;;;16.97;100.00;100840.84;5196045;28;20415;-73
2021/07/05 10:09:40;;;;;;;9.40;4.30;;;;;;;16.99;100.00;100841.53;5188265;28;20030;-73
2021/07/05 10:12:30;;;;;;;5.75;3.72;;;;;;;17.03;100.00;100826.94;5182386;28;20471;-73
2021/07/05 10:15:11;;;;;;;7.95;3.70;;;;;;;17.03;100.00;100841.00;5181908;28;20396;-72
2021/07/05 10:17:48;;;;;;;8.18;3.22;;;;;;;17.00;100.00;100841.34;5191171;28;20531;-73
2021/07/05 10:20:24;;;;;;;5.45;3.30;;;;;;;16.71;100.00;100841.94;5193273;28;20029;-73
2021/07/05 10:22:59;;;;;;;6.72;3.33;;;;;;;16.70;100.00;100842.91;5189487;28;20065;-72
2021/07/05 10:25:32;;;;;;;4.97;3.08;;;;;;;16.67;100.00;100842.44;5195884;28;20387;-73
2021/07/05 10:28:05;;;;;;;7.28;3.83;;;;;;;16.80;100.00;100842.75;5188165;28;20376;-73
2021/07/05 10:30:37;;;;;;;5.95;3.78;;;;;;;16.97;100.00;100831.13;5191580;28;20034;-72
2021/07/05 10:33:09;;;;;;;5.90;3.80;;;;;;;17.07;100.00;100838.81;5194854;28;20113;-72
2021/07/05 10:35:49;;;;;;;5.00;2.67;;;;;;;17.15;100.00;100822.91;5195824;28;20101;-74
2021/07/05 10:38:36;;;;;;;7.45;3.03;;;;;;;17.38;100.00;100822.94;5186636;28;20117;-72
2021/07/05 10:41:10;;;;;;;4.45;2.03;;;;;;;17.32;100.00;100828.13;5183918;28;20023;-72
2021/07/05 10:43:49;;;;;;;3.83;1.85;;;;;;;17.43;99.74;100835.69;5191322;28;20036;-73
2021/07/05 10:46:44;;;;;;;5.13;2.58;;;;;;;17.59;100.00;100840.03;5194000;28;20026;-72
2021/07/05 10:49:28;;;;;;;3.38;1.88;;;;;;;17.75;100.00;100840.75;5199607;28;20471;-73
2021/07/05 10:52:06;;;;;;;;;;;;;;;17.95;100.00;100834.97;5193752;28;20023;-73
2021/07/05 10:54:47;;;;;;;4.32;2.33;;;;;;;17.72;100.00;100822.53;5195920;28;19920;-73
2021/07/05 10:57:46;;;;;;;3.83;2.30;;;;;;;17.88;99.39;100828.75;5194998;28;20105;-73
2021/07/05 11:00:19;;;;;;;3.17;1.73;;;;;;;18.06;97.37;100823.94;5196127;28;20391;-73
2021/07/05 11:02:53;;;;;;;3.58;1.48;;;;;;;18.05;94.44;100818.84;5194895;28;20580;-73
2021/07/05 11:05:32;;;;;;;2.80;1.55;;;;;;;18.37;97.82;100812.38;5194094;28;20492;-73
2021/07/05 11:08:26;;;;;;;4.30;1.73;;;;;;;18.71;95.85;100810.06;5197993;28;20066;-74
2021/07/05 11:11:26;;;;;;;2.28;1.52;;;;;;;18.84;91.65;100817.34;5194713;28;20022;-73
2021/07/05 11:14:22;;;;;;;4.30;1.70;;;;;;;19.05;93.18;100805.97;5196099;28;20231;-74
2021/07/05 11:17:17;;;;;;;3.17;1.33;;;;;;;19.41;89.93;100807.78;5195040;28;20022;-74
2021/07/05 11:19:56;;;;;;;4.82;1.23;;;;;;;19.66;87.46;100800.28;5191712;28;20076;-73
2021/07/05 11:22:33;;;;;;;5.82;1.55;;;;;;;19.85;84.35;100804.13;5192727;28;20064;-74
2021/07/05 11:25:18;;;;;;;4.60;1.50;;;;;;;19.93;87.24;100798.69;5195102;28;20088;-73
2021/07/05 11:28:04;;;;;;;4.38;1.38;;;;;;;19.96;84.36;100797.47;5196365;28;20165;-73
2021/07/05 11:30:44;;;;;;;3.10;1.42;;;;;;;20.06;85.15;100790.00;5194209;28;20380;-73
2021/07/05 11:33:15;;;;;;;3.88;1.27;;;;;;;19.93;79.62;100799.50;5187827;28;20018;-73
2021/07/05 11:36:00;;;;;;;2.87;1.60;;;;;;;19.80;79.99;100803.88;5193732;28;20455;-74
2021/07/05 11:38:40;;;;;;;3.33;1.45;;;;;;;19.63;79.44;100804.16;5197407;28;20121;-73
2021/07/05 11:41:11;;;;;;;4.05;1.30;;;;;;;19.75;78.91;100801.00;5192664;28;20022;-73
2021/07/05 11:44:11;;;;;;;3.50;1.30;;;;;;;19.67;79.25;100804.59;5192379;28;20034;-75
2021/07/05 11:46:48;;;;;;;4.88;1.95;;;;;;;19.69;79.55;100808.69;5194178;28;20109;-75
2021/07/05 11:49:22;;;;;;;3.80;1.52;;;;;;;19.56;76.98;100807.75;5191866;28;20476;-73